Time;durP1;ratioP1;P1;durP2;ratioP2;P2;SDS_P1;SDS_P2;PMS_P1;PMS_P2;Temp;Humidity;BMP_temperature;BMP_pressure;BME280_temperature;BME280_humidity;BME280_pressure;Samples;Min_cycle;Max_cycle;Signal;HPM_P1;HPM_P2
2023/03/02 00:00:33;;;;;;;23.60;15.60;;;0.70;99.90;;;-0.45;100.00;101782.91;4169505;28;20033;-73
2023/03/02 00:02:38;;;;;;;22.80;14.57;;;0.60;99.90;;;-0.52;100.00;101803.03;4169924;28;20635;-72
2023/03/02 00:04:57;;;;;;;22.63;14.52;;;0.60;99.90;;;-0.65;100.00;101786.28;4170901;28;20100;-72
2023/03/02 00:07:02;;;;;;;20.50;14.45;;;0.50;99.90;;;-0.72;100.00;101800.38;4170884;28;20092;-72
2023/03/02 00:09:04;;;;;;;22.42;15.73;;;0.40;99.90;;;-0.80;100.00;101797.22;4175777;28;20029;-72
2023/03/02 00:11:05;;;;;;;25.02;15.05;;;0.30;99.90;;;-0.84;100.00;101796.50;4185922;28;20119;-72
2023/03/02 00:13:06;;;;;;;24.30;14.65;;;0.20;99.90;;;-0.91;100.00;101794.19;4185971;28;20029;-72
2023/03/02 00:15:08;;;;;;;26.52;16.40;;;0.20;99.90;;;-0.97;100.00;101797.00;4185876;28;20122;-72
2023/03/02 00:17:09;;;;;;;26.50;15.73;;;0.10;99.90;;;-1.08;100.00;101789.66;4181737;28;20014;-72
2023/03/02 00:19:10;;;;;;;24.42;16.33;;;0.00;99.90;;;-1.12;100.00;101786.34;4169341;28;20034;-72
2023/03/02 00:21:11;;;;;;;28.65;16.95;;;0.00;99.90;;;-1.12;100.00;101788.91;4169342;28;20489;-72
2023/03/02 00:23:12;;;;;;;28.50;15.90;;;-0.10;99.90;;;-1.13;100.00;101796.72;4169415;28;20033;-72
2023/03/02 00:25:15;;;;;;;26.05;15.82;;;-0.10;99.90;;;-1.14;100.00;101790.72;4170268;28;20057;-72
2023/03/02 00:27:16;;;;;;;22.70;15.55;;;-0.10;99.90;;;-1.18;100.00;101793.47;4175297;28;20055;-72
2023/03/02 00:29:17;;;;;;;29.35;15.35;;;-0.10;99.90;;;-1.17;100.00;101790.84;4172749;28;20029;-71
2023/03/02 00:31:18;;;;;;;27.23;16.88;;;-0.10;99.90;;;-1.18;100.00;101791.72;4170841;28;20103;-72
2023/03/02 00:33:19;;;;;;;28.95;16.27;;;-0.20;99.90;;;-1.15;100.00;101798.53;4170380;28;20033;-72
2023/03/02 00:35:20;;;;;;;22.60;16.55;;;-0.20;99.90;;;-1.16;100.00;101786.47;4170274;28;20037;-72
2023/03/02 00:37:21;;;;;;;26.73;16.23;;;-0.10;99.90;;;-1.20;100.00;101790.09;4175680;28;20075;-72
2023/03/02 00:39:22;;;;;;;21.55;14.57;;;-0.10;99.90;;;-1.26;100.00;101796.34;4169232;28;20029;-72
2023/03/02 00:41:23;;;;;;;25.40;16.45;;;-0.20;99.90;;;-1.34;100.00;101788.00;4170332;28;20013;-72
2023/03/02 00:43:26;;;;;;;28.75;16.25;;;-0.20;99.90;;;-1.33;100.00;101791.44;4168952;28;20032;-72
2023/03/02 00:45:27;;;;;;;26.23;16.10;;;-0.30;99.90;;;-1.38;100.00;101794.19;4170205;28;20036;-72
2023/03/02 00:47:28;;;;;;;27.75;15.48;;;-0.30;99.90;;;-1.45;100.00;101784.09;4179514;28;20271;-72
2023/03/02 00:49:29;;;;;;;28.70;17.02;;;-0.30;99.90;;;-1.45;100.00;101792.72;4185648;28;20021;-72
2023/03/02 00:51:30;;;;;;;24.70;15.57;;;-0.40;99.90;;;-1.48;100.00;101790.25;4169328;28;20524;-72
2023/03/02 00:53:32;;;;;;;24.80;15.77;;;-0.40;99.90;;;-1.50;100.00;101780.84;4169989;28;20049;-72
2023/03/02 00:55:34;;;;;;;24.95;15.68;;;-0.40;99.90;;;-1.54;100.00;101780.09;4185907;28;20037;-72
2023/03/02 00:57:35;;;;;;;25.52;14.95;;;-0.50;99.90;;;-1.62;100.00;101776.94;4172511;28;20026;-72
2023/03/02 00:59:37;;;;;;;25.13;16.02;;;-0.50;99.90;;;-1.63;100.00;101775.25;4168796;28;20033;-72
2023/03/02 01:01:38;;;;;;;27.67;16.48;;;-0.50;99.90;;;-1.67;100.00;101777.09;4169896;28;20055;-72
2023/03/02 01:03:39;;;;;;;30.92;16.50;;;-0.50;99.90;;;-1.54;100.00;101780.09;4168737;28;20049;-72
2023/03/02 01:05:40;;;;;;;32.15;17.55;;;-0.50;99.90;;;-1.46;100.00;101777.22;4168729;28;20521;-72
2023/03/02 01:07:41;;;;;;;27.73;16.17;;;-0.40;99.90;;;-1.31;100.00;101777.53;4174065;28;20080;-72
2023/03/02 01:09:44;;;;;;;34.67;16.30;;;-0.30;99.90;;;-1.20;100.00;101770.25;4169524;28;20033;-72
2023/03/02 01:11:45;;;;;;;28.77;17.67;;;-0.30;99.90;;;-1.17;100.00;101772.72;4169638;28;20034;-72
2023/03/02 01:13:46;;;;;;;29.08;16.88;;;-0.20;99.90;;;-1.07;100.00;101772.34;4168587;28;20448;-72
2023/03/02 01:15:47;;;;;;;29.23;16.67;;;-0.10;99.90;;;-1.04;100.00;101773.09;4169729;28;20029;-72
2023/03/02 01:17:48;;;;;;;28.77;15.98;;;0.00;99.90;;;-1.00;100.00;101772.09;4171182;28;20057;-72
2023/03/02 01:19:49;;;;;;;27.80;15.50;;;0.00;99.90;;;-0.95;100.00;101770.16;4168324;28;20029;-72
2023/03/02 01:21:50;;;;;;;25.70;15.18;;;0.10;99.90;;;-0.89;100.00;101774.25;4168482;28;20026;-72
2023/03/02 01:23:51;;;;;;;27.40;15.55;;;0.10;99.90;;;-0.88;100.00;101763.00;4168048;28;20052;-72
2023/03/02 01:25:52;;;;;;;22.88;13.93;;;0.20;99.90;;;-0.83;100.00;101774.03;4170829;28;20033;-72
2023/03/02 01:27:53;;;;;;;27.35;16.08;;;0.20;99.90;;;-0.85;100.00;101766.31;4169901;28;20049;-72
2023/03/02 01:29:54;;;;;;;26.33;16.20;;;0.20;99.90;;;-0.81;100.00;101762.72;4169518;28;20033;-72
2023/03/02 01:31:54;;;;;;;27.48;15.57;;;0.20;99.90;;;-0.72;100.00;101758.94;4169468;28;20040;-72
2023/03/02 01:33:55;;;;;;;27.40;14.45;;;0.20;99.90;;;-0.71;100.00;101765.78;4169471;28;20025;-72
2023/03/02 01:35:56;;;;;;;25.95;14.70;;;0.30;99.90;;;-0.78;100.00;101756.56;4168140;28;20041;-72
2023/03/02 01:37:57;;;;;;;25.70;14.05;;;0.30;99.90;;;-0.72;100.00;101771.88;4180645;28;20033;-72
2023/03/02 01:39:58;;;;;;;26.10;15.20;;;0.30;99.90;;;-0.74;100.00;101763.31;4169078;28;20482;-72
2023/03/02 01:41:59;;;;;;;22.63;14.70;;;0.30;99.90;;;-0.76;100.00;101754.75;4168228;28;20083;-72
2023/03/02 01:43:59;;;;;;;22.80;14.45;;;0.30;99.90;;;-0.75;100.00;101757.31;4168007;28;20029;-72
2023/03/02 01:46:01;;;;;;;26.85;14.73;;;0.30;99.90;;;-0.76;100.00;101758.19;4168175;28;20021;-72
2023/03/02 01:48:02;;;;;;;25.70;14.63;;;0.30;99.90;;;-0.76;100.00;101759.94;4177044;28;20090;-72
2023/03/02 01:50:11;;;;;;;26.77;14.30;;;0.30;99.90;;;-0.80;100.00;101755.78;4169198;28;20021;-73
2023/03/02 01:52:12;;;;;;;27.02;14.35;;;0.20;99.90;;;-0.87;100.00;101754.34;4167786;28;20026;-72
2023/03/02 01:54:21;;;;;;;20.17;12.48;;;0.20;99.90;;;-0.89;100.00;101748.34;4172491;28;20112;-72
2023/03/02 01:56:29;;;;;;;24.42;14.40;;;0.20;99.90;;;-0.91;100.00;101750.16;4181389;28;20056;-72
2023/03/02 01:58:35;;;;;;;23.63;13.55;;;0.10;99.90;;;-0.89;100.00;101754.38;4164902;28;20026;-72
2023/03/02 02:00:39;;;;;;;24.27;13.95;;;0.10;99.90;;;-0.89;100.00;101743.19;4158013;28;20537;-72
2023/03/02 02:02:41;;;;;;;20.73;13.05;;;0.10;99.90;;;-0.90;100.00;101738.91;4167914;28;20077;-72
2023/03/02 02:04:46;;;;;;;23.10;13.50;;;0.10;99.90;;;-0.91;100.00;101739.81;4168156;28;20036;-71
2023/03/02 02:07:04;;;;;;;23.23;13.05;;;0.10;99.90;;;-1.01;100.00;101735.88;4172520;28;20118;-72
2023/03/02 02:09:09;;;;;;;20.02;13.25;;;0.10;99.90;;;-1.05;100.00;101742.09;4167546;28;20116;-72
2023/03/02 02:11:11;;;;;;;20.23;12.93;;;0.00;99.90;;;-1.07;100.00;101743.88;4167810;28;20586;-72
2023/03/02 02:13:12;;;;;;;20.48;13.10;;;0.00;99.90;;;-1.06;100.00;101736.06;4184019;28;20021;-72
2023/03/02 02:15:13;;;;;;;22.48;13.80;;;0.00;99.90;;;-1.13;100.00;101725.09;4169000;28;20032;-72
2023/03/02 02:17:16;;;;;;;24.13;13.52;;;0.00;99.90;;;-1.12;100.00;101731.13;4170259;28;20029;-72
2023/03/02 02:19:38;;;;;;;22.05;13.02;;;-0.10;99.90;;;-1.09;100.00;101730.16;4167727;28;20444;-72
2023/03/02 02:21:40;;;;;;;24.48;13.88;;;-0.10;99.90;;;-1.14;100.00;101733.78;4172628;28;20029;-72
2023/03/02 02:24:38;;;;;;;20.98;13.13;;;-0.10;99.90;;;-1.12;100.00;101726.78;4184159;28;20017;-72
2023/03/02 02:26:50;;;;;;;21.27;12.95;;;-0.10;99.90;;;-1.11;100.00;101728.44;4180438;28;20390;-72
2023/03/02 02:29:11;;;;;;;25.23;13.10;;;-0.10;99.90;;;-1.14;100.00;101727.75;4167688;28;20040;-73
2023/03/02 02:31:44;;;;;;;23.33;12.52;;;-0.10;99.90;;;-1.17;100.00;101723.53;4167728;28;20163;-72
2023/03/02 02:33:52;;;;;;;25.50;13.93;;;-0.10;99.90;;;-1.14;100.00;101728.59;4153287;28;20121;-72
2023/03/02 02:36:06;;;;;;;22.13;13.15;;;-0.10;99.90;;;-1.13;100.00;101738.03;4167349;28;20025;-72
2023/03/02 02:38:09;;;;;;;22.17;13.10;;;-0.10;99.90;;;-1.19;100.00;101733.09;4172768;28;20067;-72
2023/03/02 02:40:18;;;;;;;19.83;12.18;;;-0.10;99.90;;;-1.22;100.00;101729.75;4183829;28;20029;-72
2023/03/02 02:42:31;;;;;;;21.58;12.27;;;-0.20;99.90;;;-1.27;100.00;101719.59;4184071;28;20029;-72
2023/03/02 02:44:33;;;;;;;21.00;12.38;;;-0.20;99.90;;;-1.27;100.00;101729.94;4184207;28;20076;-72
2023/03/02 02:46:33;;;;;;;24.17;13.45;;;-0.20;99.90;;;-1.25;100.00;101732.47;4179998;28;20032;-72
2023/03/02 02:48:35;;;;;;;21.17;13.23;;;-0.20;99.90;;;-1.32;100.00;101721.53;4167508;28;20516;-72
2023/03/02 02:50:36;;;;;;;19.20;11.68;;;-0.20;99.90;;;-1.26;100.00;101736.81;4165563;28;20614;-72
2023/03/02 02:52:39;;;;;;;20.35;12.75;;;-0.30;99.90;;;-1.31;100.00;101728.38;4168536;28;20037;-72
2023/03/02 02:54:46;;;;;;;22.05;11.85;;;-0.20;99.90;;;-1.28;100.00;101740.34;4175918;28;20112;-72
2023/03/02 02:56:49;;;;;;;21.63;12.68;;;-0.30;99.90;;;-1.29;100.00;101738.69;4178342;28;20048;-72
2023/03/02 02:58:52;;;;;;;20.45;12.30;;;-0.30;99.90;;;-1.33;100.00;101737.09;4167119;28;20032;-72
2023/03/02 03:00:54;;;;;;;21.55;12.27;;;-0.30;99.90;;;-1.38;100.00;101737.28;4167289;28;20051;-72
2023/03/02 03:03:09;;;;;;;20.60;11.98;;;-0.30;99.90;;;-1.43;100.00;101733.13;4167388;28;20030;-72
2023/03/02 03:05:14;;;;;;;20.17;11.77;;;-0.40;99.90;;;-1.51;100.00;101737.75;4167326;28;20029;-72
2023/03/02 03:07:22;;;;;;;20.10;12.38;;;-0.40;99.90;;;-1.56;100.00;101724.16;4171499;28;20025;-72
2023/03/02 03:09:24;;;;;;;17.20;11.40;;;-0.50;99.90;;;-1.58;100.00;101731.94;4167129;28;20084;-72
2023/03/02 03:11:29;;;;;;;17.98;11.48;;;-0.50;99.90;;;-1.59;100.00;101735.44;4166916;28;20037;-72
2023/03/02 03:13:31;;;;;;;21.58;12.60;;;-0.50;99.90;;;-1.67;100.00;101733.13;4183492;28;20100;-72
2023/03/02 03:15:32;;;;;;;17.05;11.15;;;-0.60;99.90;;;-1.71;100.00;101735.88;4169529;28;20049;-72
2023/03/02 03:17:33;;;;;;;19.80;12.45;;;-0.60;99.90;;;-1.70;100.00;101745.31;4181009;28;20060;-72
2023/03/02 03:19:33;;;;;;;22.98;12.45;;;-0.60;99.90;;;-1.72;100.00;101744.53;4175658;28;20025;-72
2023/03/02 03:21:35;;;;;;;24.40;12.27;;;-0.70;99.90;;;-1.75;100.00;101742.06;4171455;28;20097;-72
2023/03/02 03:23:37;;;;;;;23.90;12.70;;;-0.70;99.90;;;-1.73;100.00;101743.69;4170334;28;20168;-71
2023/03/02 03:25:37;;;;;;;24.90;12.80;;;-0.70;99.90;;;-1.72;100.00;101740.22;4171219;28;20049;-72
2023/03/02 03:27:40;;;;;;;23.15;12.30;;;-0.70;99.90;;;-1.71;100.00;101735.88;4182000;28;20053;-72
2023/03/02 03:29:47;;;;;;;21.80;13.65;;;-0.70;99.90;;;-1.76;100.00;101728.28;4170790;28;20028;-72
2023/03/02 03:31:47;;;;;;;20.25;13.13;;;-0.70;99.90;;;-1.78;100.00;101730.09;4170562;28;20228;-73
2023/03/02 03:33:48;;;;;;;20.25;11.75;;;-0.70;99.90;;;-1.77;100.00;101736.94;4170124;28;20484;-73
2023/03/02 03:35:49;;;;;;;20.63;11.98;;;-0.80;99.90;;;-1.79;100.00;101727.53;4171309;28;20033;-72
2023/03/02 03:37:51;;;;;;;17.00;11.60;;;-0.70;99.90;;;-1.84;100.00;101729.44;4180299;28;20049;-72
2023/03/02 03:39:52;;;;;;;20.73;12.60;;;-0.80;99.90;;;-1.82;100.00;101731.06;4169903;28;20567;-72
2023/03/02 03:41:53;;;;;;;21.05;12.55;;;-0.80;99.90;;;-1.87;100.00;101721.78;4171339;28;20017;-72
2023/03/02 03:43:54;;;;;;;19.83;12.48;;;-0.80;99.90;;;-1.86;100.00;101720.91;4169978;28;20117;-72
2023/03/02 03:45:55;;;;;;;22.65;12.57;;;-0.80;99.90;;;-1.86;100.00;101726.94;4169838;28;20109;-72
2023/03/02 03:47:57;;;;;;;24.33;14.40;;;-0.80;99.90;;;-1.88;100.00;101733.06;4178989;28;20033;-72
2023/03/02 03:49:58;;;;;;;17.38;9.85;;;-0.90;99.90;;;-1.97;100.00;101723.03;4170191;28;20029;-72
2023/03/02 03:51:58;;;;;;;18.80;11.05;;;-0.90;99.90;;;-2.03;100.00;101728.41;4154562;28;20037;-72
2023/03/02 03:54:06;;;;;;;19.55;11.93;;;-0.90;99.90;;;-2.11;100.00;101727.78;4173806;28;20025;-72
2023/03/02 03:56:07;;;;;;;17.52;11.57;;;-1.00;99.90;;;-2.17;100.00;101720.25;4186370;28;20029;-72
2023/03/02 03:58:08;;;;;;;16.50;11.13;;;-1.10;99.90;;;-2.25;100.00;101726.53;4170480;28;20087;-72
2023/03/02 04:00:13;;;;;;;19.95;10.93;;;-1.10;99.90;;;-2.36;100.00;101720.84;4170930;28;20033;-71
2023/03/02 04:02:14;;;;;;;21.35;12.60;;;-1.20;99.90;;;-2.32;100.00;101721.59;4169917;28;20021;-72
2023/03/02 04:04:20;;;;;;;19.65;12.77;;;-1.20;99.90;;;-2.34;100.00;101720.81;4170916;28;20037;-72
2023/03/02 04:06:21;;;;;;;19.77;11.98;;;-1.20;99.90;;;-2.31;100.00;101723.31;4170410;28;20021;-71
2023/03/02 04:08:22;;;;;;;19.38;12.18;;;-1.20;99.90;;;-2.31;100.00;101725.88;4172406;28;20031;-72
2023/03/02 04:10:22;;;;;;;24.00;13.13;;;-1.20;99.90;;;-2.28;100.00;101730.97;4169409;28;20029;-72
2023/03/02 04:12:23;;;;;;;22.35;13.13;;;-1.20;99.90;;;-2.24;100.00;101735.97;4169593;28;20037;-72
2023/03/02 04:14:24;;;;;;;22.15;14.45;;;-1.20;99.90;;;-2.18;100.00;101734.09;4170655;28;20030;-72
2023/03/02 04:16:25;;;;;;;21.20;14.27;;;-1.20;99.90;;;-2.15;100.00;101736.56;4170678;28;20033;-72
2023/03/02 04:18:26;;;;;;;25.65;13.60;;;-1.10;99.90;;;-2.12;100.00;101732.13;4170942;28;20025;-71
2023/03/02 04:20:28;;;;;;;30.20;15.20;;;-1.10;99.90;;;-2.03;100.00;101743.91;4169434;28;20041;-72
2023/03/02 04:22:29;;;;;;;26.17;13.68;;;-1.00;99.90;;;-2.00;100.00;101741.22;4169247;28;20052;-72
2023/03/02 04:24:30;;;;;;;22.33;12.75;;;-1.00;99.90;;;-1.98;100.00;101736.84;4170360;28;20029;-72
2023/03/02 04:26:32;;;;;;;26.33;14.88;;;-1.00;99.90;;;-1.95;100.00;101736.72;4169849;28;20120;-72
2023/03/02 04:28:33;;;;;;;24.67;14.60;;;-0.90;99.90;;;-1.91;100.00;101740.91;4179474;28;20034;-72
2023/03/02 04:30:34;;;;;;;23.30;14.63;;;-0.90;99.90;;;-1.94;100.00;101741.03;4169269;28;20067;-71
2023/03/02 04:32:35;;;;;;;23.25;14.38;;;-0.90;99.90;;;-1.92;100.00;101737.47;4169551;28;20105;-72
2023/03/02 04:34:36;;;;;;;24.98;14.38;;;-0.90;99.90;;;-1.93;100.00;101737.50;4170458;28;20029;-71
2023/03/02 04:36:39;;;;;;;27.40;14.07;;;-0.90;99.90;;;-1.94;100.00;101741.84;4171599;28;20037;-72
2023/03/02 04:38:40;;;;;;;24.27;14.10;;;-0.90;99.90;;;-1.98;100.00;101742.84;4168681;28;20018;-72
2023/03/02 04:40:41;;;;;;;22.95;12.38;;;-0.90;99.90;;;-1.96;100.00;101746.22;4185566;28;20036;-72
2023/03/02 04:42:43;;;;;;;27.63;14.70;;;-0.90;99.90;;;-2.01;100.00;101737.78;4185595;28;20031;-72
2023/03/02 04:44:44;;;;;;;24.08;14.43;;;-0.90;99.90;;;-1.99;100.00;101750.66;4185759;28;20039;-72
2023/03/02 04:46:46;;;;;;;21.65;13.75;;;-0.90;99.90;;;-1.96;100.00;101756.56;4183262;28;20017;-72
2023/03/02 04:48:47;;;;;;;23.92;13.43;;;-0.90;99.90;;;-1.99;100.00;101748.06;4170053;28;20139;-72
2023/03/02 04:50:48;;;;;;;23.08;14.52;;;-0.90;99.90;;;-2.04;100.00;101744.81;4170183;28;20029;-72
2023/03/02 04:52:49;;;;;;;26.98;14.77;;;-1.00;99.90;;;-2.02;100.00;101745.59;4168503;28;20030;-72
2023/03/02 04:54:50;;;;;;;22.40;13.32;;;-0.90;99.90;;;-2.02;100.00;101749.00;4179986;28;20058;-71
2023/03/02 04:56:53;;;;;;;29.08;15.27;;;-1.00;99.90;;;-1.99;100.00;101755.81;4181024;28;20025;-72
2023/03/02 04:58:54;;;;;;;24.63;14.20;;;-1.00;99.90;;;-2.01;100.00;101744.69;4168762;28;20036;-72
2023/03/02 05:01:02;;;;;;;23.80;14.93;;;-0.90;99.90;;;-2.01;100.00;101747.28;4168638;28;20509;-71
2023/03/02 05:03:04;;;;;;;27.45;16.20;;;-0.90;99.90;;;-2.03;100.00;101738.75;4168887;28;20021;-73
2023/03/02 05:05:05;;;;;;;23.25;14.18;;;-0.90;99.90;;;-2.03;100.00;101749.09;4168820;28;20030;-71
2023/03/02 05:07:07;;;;;;;26.67;15.23;;;-1.00;99.90;;;-2.00;100.00;101748.97;4171345;28;20022;-72
2023/03/02 05:09:08;;;;;;;25.40;14.32;;;-0.90;99.90;;;-2.04;100.00;101745.66;4168457;28;20112;-72
2023/03/02 05:11:28;;;;;;;25.02;14.98;;;-0.90;99.90;;;-2.03;100.00;101738.75;4170875;28;20127;-72
2023/03/02 05:13:29;;;;;;;24.20;14.90;;;-0.90;99.90;;;-2.04;100.00;101737.91;4183017;28;20490;-72
2023/03/02 05:15:39;;;;;;;25.55;14.43;;;-0.90;99.90;;;-2.03;100.00;101733.56;4168607;28;20030;-71
2023/03/02 05:17:40;;;;;;;26.90;15.38;;;-1.00;99.90;;;-2.10;100.00;101738.09;4178885;28;20037;-72
2023/03/02 05:19:41;;;;;;;29.77;15.85;;;-1.00;99.90;;;-2.07;100.00;101742.31;4169919;28;20033;-72
2023/03/02 05:21:43;;;;;;;22.40;14.38;;;-1.00;99.90;;;-2.05;100.00;101750.84;4168801;28;20032;-72
2023/03/02 05:23:44;;;;;;;25.40;13.90;;;-1.00;99.90;;;-2.09;100.00;101738.94;4169524;28;20032;-72
2023/03/02 05:25:45;;;;;;;28.27;15.82;;;-1.00;99.90;;;-2.04;100.00;101753.41;4168399;28;20412;-71
2023/03/02 05:27:46;;;;;;;25.23;15.27;;;-1.00;99.90;;;-2.06;100.00;101755.19;4177767;28;20041;-72
2023/03/02 05:29:47;;;;;;;24.70;15.43;;;-0.90;99.90;;;-2.07;100.00;101758.69;4168433;28;20053;-71
2023/03/02 05:31:48;;;;;;;24.27;14.27;;;-1.00;99.90;;;-2.08;100.00;101756.97;4169943;28;20071;-72
2023/03/02 05:33:49;;;;;;;25.65;14.88;;;-1.00;99.90;;;-2.07;100.00;101763.00;4195818;28;20024;-72
2023/03/02 05:35:50;;;;;;;22.05;14.60;;;-1.00;99.90;;;-2.08;100.00;101756.13;4184653;28;20059;-71
2023/03/02 05:37:51;;;;;;;24.67;15.13;;;-1.00;99.90;;;-2.07;100.00;101763.00;4173845;28;20055;-72
2023/03/02 05:39:52;;;;;;;24.20;15.57;;;-1.00;99.90;;;-2.06;100.00;101760.34;4169176;28;20021;-72
2023/03/02 05:41:53;;;;;;;28.15;14.75;;;-1.00;99.90;;;-2.10;100.00;101748.44;4169450;28;20040;-71
2023/03/02 05:43:54;;;;;;;27.77;16.17;;;-1.00;99.90;;;-2.08;100.00;101761.28;4168063;28;20076;-72
2023/03/02 05:45:59;;;;;;;30.88;16.10;;;-1.00;99.90;;;-2.08;100.00;101756.13;4168174;28;20444;-72
2023/03/02 05:48:00;;;;;;;28.52;15.45;;;-1.00;99.90;;;-2.07;100.00;101763.84;4171206;28;20049;-72
2023/03/02 05:50:01;;;;;;;25.35;15.77;;;-1.00;99.90;;;-2.05;100.00;101766.38;4168350;28;20386;-72
2023/03/02 05:52:02;;;;;;;25.52;15.45;;;-1.00;99.90;;;-2.11;100.00;101757.06;4169128;28;20033;-72
2023/03/02 05:54:03;;;;;;;28.77;16.55;;;-1.00;99.90;;;-2.08;100.00;101763.88;4171385;28;20029;-72
2023/03/02 05:56:04;;;;;;;24.85;15.90;;;-1.00;99.90;;;-2.11;100.00;101761.41;4185685;28;20029;-72
2023/03/02 05:58:10;;;;;;;28.20;15.23;;;-1.00;99.90;;;-2.13;100.00;101764.06;4171220;28;20036;-72
2023/03/02 06:00:13;;;;;;;24.73;15.07;;;-1.10;99.90;;;-2.18;100.00;101763.34;4167939;28;20421;-72
2023/03/02 06:02:14;;;;;;;25.30;15.77;;;-1.10;99.90;;;-2.14;100.00;101761.50;4168002;28;20605;-71
2023/03/02 06:04:15;;;;;;;29.42;17.20;;;-1.10;99.90;;;-2.12;100.00;101770.06;4167905;28;20030;-72
2023/03/02 06:06:16;;;;;;;26.60;15.65;;;-1.10;99.90;;;-2.15;100.00;101759.81;4168704;28;20068;-72
2023/03/02 06:08:19;;;;;;;28.63;17.20;;;-1.10;99.90;;;-2.12;100.00;101762.31;4168367;28;20029;-72
2023/03/02 06:10:20;;;;;;;30.80;16.30;;;-1.10;99.90;;;-2.13;100.00;101758.03;4183956;28;20021;-72
2023/03/02 06:12:21;;;;;;;28.58;15.50;;;-1.10;99.90;;;-2.10;100.00;101755.34;4168950;28;20560;-71
2023/03/02 06:14:21;;;;;;;27.60;16.45;;;-1.00;99.90;;;-2.10;100.00;101756.19;4167626;28;20068;-71
2023/03/02 06:16:22;;;;;;;28.17;17.30;;;-1.10;99.90;;;-2.13;100.00;101753.72;4175840;28;20033;-72
2023/03/02 06:18:23;;;;;;;28.67;17.80;;;-1.00;99.90;;;-2.06;100.00;101762.09;4173039;28;20448;-72
2023/03/02 06:20:24;;;;;;;30.08;15.73;;;-1.00;99.90;;;-2.02;100.00;101751.59;4175845;28;20028;-72
2023/03/02 06:22:26;;;;;;;26.77;17.33;;;-1.00;99.90;;;-1.95;100.00;101762.59;4173284;28;20053;-72
2023/03/02 06:24:26;;;;;;;32.25;17.27;;;-0.90;99.90;;;-1.99;100.00;101756.66;4170494;28;20034;-72
2023/03/02 06:26:27;;;;;;;26.10;16.10;;;-0.90;99.90;;;-1.97;100.00;101756.63;4183992;28;20048;-72
2023/03/02 06:28:28;;;;;;;29.80;17.85;;;-0.90;99.90;;;-1.99;100.00;101754.09;4169152;28;20025;-72
2023/03/02 06:30:29;;;;;;;33.65;18.40;;;-0.90;99.90;;;-1.96;100.00;101751.41;4167700;28;20044;-72
2023/03/02 06:32:32;;;;;;;34.88;18.48;;;-0.90;99.90;;;-1.95;100.00;101752.25;4168990;28;20025;-72
2023/03/02 06:34:33;;;;;;;26.10;16.40;;;-0.90;99.90;;;-1.97;100.00;101741.13;4167678;28;20030;-72
2023/03/02 06:36:37;;;;;;;27.80;17.90;;;-0.90;99.90;;;-1.99;100.00;101748.91;4167653;28;20029;-72
2023/03/02 06:38:38;;;;;;;31.42;18.15;;;-0.90;99.90;;;-1.94;100.00;101748.78;4183077;28;20040;-72
2023/03/02 06:40:39;;;;;;;33.75;18.27;;;-0.90;99.90;;;-1.95;100.00;101741.91;4169873;28;20041;-72
2023/03/02 06:42:41;;;;;;;32.60;18.58;;;-0.90;99.90;;;-1.97;100.00;101746.28;4168787;28;20021;-72
2023/03/02 06:44:42;;;;;;;30.25;18.20;;;-0.90;99.90;;;-1.98;100.00;101745.44;4167540;28;20029;-72
2023/03/02 06:46:44;;;;;;;30.48;19.50;;;-0.90;99.90;;;-1.95;100.00;101749.66;4169769;28;20032;-72
2023/03/02 06:48:44;;;;;;;29.95;18.15;;;-0.90;99.90;;;-1.97;100.00;101751.47;4171296;28;20049;-72
2023/03/02 06:50:45;;;;;;;29.63;17.77;;;-0.90;99.90;;;-2.03;100.00;101749.91;4170273;28;20032;-72
2023/03/02 06:52:47;;;;;;;28.98;16.92;;;-0.90;99.90;;;-2.05;100.00;101748.28;4170601;28;20033;-72
2023/03/02 06:54:47;;;;;;;32.90;18.10;;;-0.90;99.90;;;-2.07;100.00;101745.75;4181273;28;20060;-72
2023/03/02 06:56:48;;;;;;;33.97;19.05;;;-1.00;99.90;;;-2.04;100.00;101744.81;4180965;28;20048;-72
2023/03/02 06:58:49;;;;;;;33.85;18.73;;;-0.90;99.90;;;-2.02;100.00;101751.59;4170437;28;20040;-72
2023/03/02 07:00:50;;;;;;;30.65;19.30;;;-0.90;99.90;;;-1.96;100.00;101740.19;4170579;28;20033;-72
2023/03/02 07:02:51;;;;;;;34.75;21.10;;;-0.90;99.90;;;-1.92;100.00;101749.56;4173261;28;20013;-72
2023/03/02 07:04:52;;;;;;;36.13;20.58;;;-0.90;99.90;;;-1.92;100.00;101749.56;4174518;28;20625;-71
2023/03/02 07:06:54;;;;;;;31.08;19.25;;;-0.80;99.90;;;-1.83;100.00;101751.81;4177053;28;20018;-70
2023/03/02 07:08:55;;;;;;;29.55;18.90;;;-0.80;99.90;;;-1.80;100.00;101757.75;4170927;28;20033;-71
2023/03/02 07:10:56;;;;;;;28.88;18.73;;;-0.70;99.90;;;-1.81;100.00;101756.03;4170021;28;20030;-71
2023/03/02 07:12:57;;;;;;;29.35;18.55;;;-0.70;99.90;;;-1.84;100.00;101750.13;4186679;28;20029;-71
2023/03/02 07:14:57;;;;;;;32.95;20.38;;;-0.70;99.90;;;-1.80;100.00;101762.06;4171037;28;20396;-71
2023/03/02 07:16:58;;;;;;;29.60;19.42;;;-0.70;99.90;;;-1.78;100.00;101765.44;4172938;28;20033;-70
2023/03/02 07:19:00;;;;;;;34.42;20.77;;;-0.70;99.90;;;-1.75;100.00;101773.94;4169862;28;20028;-70
2023/03/02 07:21:01;;;;;;;31.25;18.65;;;-0.70;99.90;;;-1.69;100.00;101773.72;4170947;28;20028;-71
2023/03/02 07:23:02;;;;;;;32.85;19.33;;;-0.60;99.90;;;-1.64;100.00;101777.91;4170594;28;20021;-72
2023/03/02 07:25:04;;;;;;;32.65;19.05;;;-0.60;99.90;;;-1.64;100.00;101775.31;4185788;28;20025;-72
2023/03/02 07:27:05;;;;;;;34.75;19.67;;;-0.60;99.90;;;-1.59;100.00;101781.16;4175482;28;20034;-72
2023/03/02 07:29:06;;;;;;;31.58;18.30;;;-0.50;99.90;;;-1.55;100.00;101783.56;4185189;28;20508;-72
2023/03/02 07:31:08;;;;;;;36.47;19.60;;;-0.50;99.90;;;-1.54;100.00;101780.09;4170620;28;20025;-72
2023/03/02 07:33:09;;;;;;;35.03;19.85;;;-0.50;99.90;;;-1.47;100.00;101791.94;4168972;28;20041;-71
2023/03/02 07:35:10;;;;;;;32.40;19.98;;;-0.40;99.90;;;-1.45;100.00;101789.28;4177281;28;20017;-72
2023/03/02 07:37:10;;;;;;;36.42;19.63;;;-0.40;99.90;;;-1.37;100.00;101790.69;4175149;28;20076;-72
2023/03/02 07:39:11;;;;;;;31.27;19.77;;;-0.30;99.90;;;-1.36;100.00;101792.41;4170833;28;20026;-72
2023/03/02 07:41:14;;;;;;;33.92;19.67;;;-0.30;99.90;;;-1.28;100.00;101790.38;4171115;28;20028;-72
2023/03/02 07:43:15;;;;;;;33.25;21.27;;;-0.20;99.90;;;-1.23;100.00;101790.22;4178900;28;20022;-72
2023/03/02 07:45:19;;;;;;;32.55;20.17;;;-0.20;99.90;;;-1.21;100.00;101791.00;4182567;28;20079;-72
2023/03/02 07:47:20;;;;;;;25.23;15.70;;;-0.10;99.90;;;-1.15;100.00;101793.34;4175435;28;20503;-72
2023/03/02 07:49:21;;;;;;;32.85;20.15;;;-0.10;99.90;;;-1.12;100.00;101796.69;4171113;28;20037;-72
2023/03/02 07:51:21;;;;;;;37.42;22.60;;;0.00;99.90;;;-1.11;100.00;101794.94;4169962;28;20036;-72
2023/03/02 07:53:22;;;;;;;33.67;19.25;;;0.00;99.90;;;-1.01;100.00;101796.28;4169890;28;20033;-72
2023/03/02 07:55:23;;;;;;;33.33;19.95;;;0.10;99.90;;;-0.91;100.00;101801.97;4183967;28;20033;-72
2023/03/02 07:57:24;;;;;;;37.67;20.92;;;0.10;99.90;;;-0.90;100.00;101807.09;4175939;28;20037;-72
2023/03/02 07:59:27;;;;;;;29.15;18.02;;;0.10;99.90;;;-0.82;100.00;101809.38;4169559;28;20548;-72
2023/03/02 08:01:28;;;;;;;36.13;19.38;;;0.20;99.90;;;-0.78;100.00;101809.22;4169619;28;20116;-72
2023/03/02 08:03:29;;;;;;;34.45;19.55;;;0.30;99.90;;;-0.78;100.00;101808.38;4169565;28;20607;-72
2023/03/02 08:05:30;;;;;;;32.00;19.30;;;0.30;99.90;;;-0.73;100.00;101799.53;4169800;28;20476;-72
2023/03/02 08:07:31;;;;;;;30.55;18.38;;;0.40;99.90;;;-0.70;100.00;101804.59;4175142;28;20092;-72
2023/03/02 08:09:32;;;;;;;33.28;19.15;;;0.40;99.90;;;-0.69;100.00;101795.09;4170577;28;20474;-72
2023/03/02 08:11:32;;;;;;;28.73;18.58;;;0.40;99.90;;;-0.61;100.00;101811.16;4170549;28;20155;-72
2023/03/02 08:13:33;;;;;;;33.25;18.45;;;0.50;99.90;;;-0.58;100.00;101816.22;4170825;28;20034;-72
2023/03/02 08:15:34;;;;;;;33.10;18.67;;;0.50;99.90;;;-0.58;100.00;101813.66;4170703;28;20032;-72